createdAt,value
2023-03-22T00:00:56.800Z,10.80
2023-03-22T00:05:58.681Z,10.70
2023-03-22T00:11:00.813Z,10.70
2023-03-22T00:16:03.207Z,10.50
2023-03-22T00:21:05.609Z,10.50
2023-03-22T00:26:09.379Z,10.40
2023-03-22T00:31:11.388Z,10.30
2023-03-22T00:36:13.370Z,10.10
2023-03-22T00:41:20.820Z,10.10
2023-03-22T00:46:22.621Z,10.00
2023-03-22T00:51:24.461Z,9.90
2023-03-22T00:56:28.707Z,9.90
2023-03-22T01:01:30.611Z,10.00
2023-03-22T01:06:39.652Z,10.00
2023-03-22T01:11:43.072Z,10.00
2023-03-22T01:16:44.959Z,9.90
2023-03-22T01:21:47.403Z,9.90
2023-03-22T01:26:49.324Z,9.90
2023-03-22T01:31:51.219Z,9.90
2023-03-22T01:36:54.099Z,9.80
2023-03-22T01:41:55.922Z,9.90
2023-03-22T01:46:57.761Z,10.00
2023-03-22T01:52:05.953Z,10.00
2023-03-22T01:57:07.826Z,10.00
2023-03-22T02:02:10.950Z,9.90
2023-03-22T02:07:16.338Z,9.80
2023-03-22T02:12:30.187Z,9.60
2023-03-22T02:17:42.262Z,9.60
2023-03-22T02:22:58.242Z,9.60
2023-03-22T02:28:12.348Z,9.60
2023-03-22T02:33:43.502Z,9.60
2023-03-22T02:39:01.149Z,9.60
2023-03-22T02:44:08.627Z,9.70
2023-03-22T02:49:26.339Z,9.70
2023-03-22T02:54:38.039Z,9.60
2023-03-22T02:59:41.760Z,9.60
2023-03-22T03:04:48.772Z,9.70
2023-03-22T03:09:51.414Z,9.80
2023-03-22T03:14:53.185Z,9.80
2023-03-22T03:20:08.818Z,9.90
2023-03-22T03:25:18.347Z,9.90
2023-03-22T03:30:32.611Z,9.90
2023-03-22T03:35:39.397Z,10.00
2023-03-22T03:40:50.383Z,10.00
2023-03-22T03:45:53.779Z,10.00
2023-03-22T03:50:57.801Z,10.00
2023-03-22T03:55:59.527Z,9.90
2023-03-22T04:01:01.217Z,9.90
2023-03-22T04:06:03.737Z,10.00
2023-03-22T04:11:05.603Z,10.00
2023-03-22T04:16:07.569Z,10.00
2023-03-22T04:21:12.109Z,10.00
2023-03-22T04:26:14.130Z,10.00
2023-03-22T04:31:16.037Z,9.90
2023-03-22T04:36:17.759Z,9.80
2023-03-22T04:41:19.425Z,9.80
2023-03-22T04:46:21.829Z,9.70
2023-03-22T04:51:23.728Z,9.70
2023-03-22T04:56:25.655Z,9.60
2023-03-22T05:01:27.517Z,9.60
2023-03-22T05:06:32.775Z,9.50
2023-03-22T05:11:34.773Z,9.50
2023-03-22T05:16:40.704Z,9.50
2023-03-22T05:21:44.149Z,9.40
2023-03-22T05:26:45.887Z,9.40
2023-03-22T05:31:47.813Z,9.50
2023-03-22T05:36:51.564Z,9.50
2023-03-22T05:41:53.940Z,9.60
2023-03-22T05:46:56.148Z,9.60
2023-03-22T05:51:59.105Z,9.60
2023-03-22T05:57:04.810Z,9.70
2023-03-22T06:02:07.059Z,9.70
2023-03-22T06:07:08.984Z,9.80
2023-03-22T06:12:11.814Z,9.80
2023-03-22T06:17:13.636Z,9.90
2023-03-22T06:22:16.100Z,10.10
2023-03-22T06:27:18.117Z,10.10
2023-03-22T06:32:20.774Z,10.20
2023-03-22T06:37:25.281Z,10.30
2023-03-22T06:42:27.264Z,10.30
2023-03-22T06:47:29.264Z,10.40
2023-03-22T06:52:31.069Z,10.60
2023-03-22T06:57:32.955Z,10.80
2023-03-22T07:02:34.784Z,11.00
2023-03-22T07:07:36.613Z,11.20
2023-03-22T07:12:38.563Z,11.30
2023-03-22T07:17:40.554Z,11.50
2023-03-22T07:22:42.293Z,11.60
2023-03-22T07:27:44.175Z,11.80
2023-03-22T07:32:46.266Z,11.80
2023-03-22T07:37:48.837Z,11.90
2023-03-22T07:42:51.068Z,12.00
2023-03-22T07:47:52.916Z,11.80
2023-03-22T07:52:54.814Z,11.70
2023-03-22T07:57:56.607Z,11.80
2023-03-22T08:02:58.432Z,11.90
2023-03-22T08:08:00.598Z,11.90
2023-03-22T08:13:02.321Z,12.10
2023-03-22T08:18:04.112Z,12.20
2023-03-22T08:23:07.998Z,12.10
2023-03-22T08:28:10.576Z,12.20
2023-03-22T08:33:12.838Z,12.30
2023-03-22T08:38:14.635Z,12.70
2023-03-22T08:43:16.324Z,12.60
2023-03-22T08:48:18.234Z,12.60
2023-03-22T08:53:19.957Z,12.70
2023-03-22T08:58:21.676Z,12.80
2023-03-22T09:03:24.943Z,12.90
2023-03-22T09:08:27.207Z,13.00
2023-03-22T09:13:31.165Z,13.20
2023-03-22T09:18:32.886Z,13.30
2023-03-22T09:23:36.482Z,13.40
2023-03-22T09:28:38.300Z,13.70
2023-03-22T09:33:41.505Z,13.80
2023-03-22T09:38:43.356Z,14.00
2023-03-22T09:43:55.831Z,14.10
2023-03-22T09:49:04.354Z,14.20
2023-03-22T09:54:35.361Z,14.50
2023-03-22T09:59:56.986Z,14.50
2023-03-22T10:04:58.615Z,14.40
2023-03-22T10:10:21.056Z,14.90
2023-03-22T10:15:30.842Z,15.50
2023-03-22T10:21:00.011Z,15.70
2023-03-22T10:26:03.821Z,15.50
2023-03-22T10:31:06.790Z,15.20
2023-03-22T10:36:13.669Z,15.40
2023-03-22T10:41:18.679Z,15.40
2023-03-22T10:46:24.323Z,15.60
2023-03-22T10:52:02.173Z,15.90
2023-03-22T10:57:04.096Z,16.00
2023-03-22T11:02:18.233Z,16.30
2023-03-22T11:07:36.547Z,16.40
2023-03-22T11:12:48.230Z,16.60
2023-03-22T11:17:50.512Z,16.90
2023-03-22T11:22:52.682Z,17.30
2023-03-22T11:28:37.078Z,17.50
2023-03-22T11:33:58.307Z,17.30
2023-03-22T11:39:01.894Z,17.40
2023-03-22T11:44:07.877Z,17.40
2023-03-22T11:49:14.795Z,17.40
2023-03-22T11:54:30.536Z,17.60
2023-03-22T11:59:45.649Z,18.00
2023-03-22T12:04:49.671Z,18.10
2023-03-22T12:10:06.847Z,17.90
2023-03-22T12:15:17.634Z,17.80
2023-03-22T12:20:29.814Z,17.60
2023-03-22T12:25:35.931Z,17.30
2023-03-22T12:30:47.941Z,17.30
2023-03-22T12:35:55.279Z,17.30
2023-03-22T12:41:00.457Z,17.70
2023-03-22T12:46:05.363Z,17.70
2023-03-22T12:51:09.658Z,17.70
2023-03-22T12:56:24.783Z,17.80
2023-03-22T13:01:47.774Z,18.00
2023-03-22T13:06:53.595Z,18.20
2023-03-22T13:12:17.115Z,18.10
2023-03-22T13:17:25.313Z,18.00
2023-03-22T13:22:29.706Z,18.10
2023-03-22T13:27:50.125Z,18.00
2023-03-22T13:32:56.162Z,18.20
2023-03-22T13:38:07.705Z,18.50
2023-03-22T13:43:26.072Z,18.70
2023-03-22T13:49:02.627Z,18.90
2023-03-22T13:54:21.126Z,18.80
2023-03-22T13:59:30.003Z,18.70
2023-03-22T14:04:53.667Z,18.70
2023-03-22T14:10:06.692Z,18.70
2023-03-22T14:15:15.021Z,18.60
2023-03-22T14:20:23.373Z,18.60
